ADDS METAR Data INFO
IDs: Format: Raw Decoded Include TAF

Data at: 1841 UTC 16 Dec 2017

KBAF 161753Z 25008KT 10SM FEW060 OVC090 M01/M08 A2990 RMK AO2 SLP134 I6000 T10061083 11006 21133 58021
KBAF 161653Z 23006KT 10SM OVC100 M01/M08 A2993 RMK AO2 SLP142 T10111083
KBAF 161553Z 21005KT 10SM OVC110 M03/M08 A2996 RMK AO2 SLP154 T10331078
KBAF 161453Z 19005KT 10SM FEW100 M06/M09 A2997 RMK AO2 SLP156 I3000 T10561089 51023
KBAF 161353Z 16005KT 10SM CLR M10/M11 A2995 RMK AO2 SLP153 T11001111
KBAF 161253Z 21003KT 10SM CLR M12/M13 A2992 RMK AO2 SLP143 I1000 T11221128
KBAF 161153Z 00000KT 10SM CLR M11/M13 A2990 RMK AO2 SLP134 I1000 I6001 T11111128 11056 21122 51016
KBAF 161053Z AUTO 15003KT 10SM CLR M12/M13 A2988 RMK AO2 SLP129 T11221133
KBAF 160953Z AUTO 17003KT 10SM CLR M10/M11 A2987 RMK AO2 SLP123 I1001 T11001111
KBAF 160853Z AUTO 17003KT 10SM CLR M09/M11 A2985 RMK AO2 SLP117 T10941106 53009
KBAF 160753Z AUTO 00000KT 10SM CLR M08/M10 A2984 RMK AO2 SLP112 T10781100
KBAF 160653Z AUTO 25004KT 10SM BKN100 M06/M09 A2983 RMK AO2 SLP111 T10611094
KBAF 160553Z AUTO 26005KT 10SM OVC095 M06/M09 A2982 RMK AO2 SLP107 60000 T10561089 11056 21072 56006
KBAF 160453Z AUTO 00000KT 10SM OVC100 M07/M07 A2983 RMK AO2 SLP109 T10671072 410501122
KBAF 160353Z AUTO 20004KT 10SM OVC050 M07/M07 A2983 RMK AO2 SLP111 T10671072
KBAF 160253Z 00000KT 10SM BKN050 OVC070 M06/M07 A2984 RMK AO2 SNE03 SLP114 P0000 60000 T10611072 58012
KBAF 160210Z 00000KT 10SM FEW009 OVC110 M06/M07 A2985 RMK AO2 SNE03 P0000 T10611072
KBAF 160151Z 00000KT 4SM -SN BR SCT027 OVC100 M07/M07 A2985 RMK AO2 SLP119 P0000 T10671072
KBAF 160150Z 00000KT 3SM -SN BR SCT027 OVC100 M06/M07 A2986 RMK AO2 P0000
KBAF 160130Z 17003KT 2SM -SN BR OVC027 M06/M07 A2986 RMK AO2 P0000 T10611072
KBAF 160116Z 15003KT 2SM -SN BR OVC033 M06/M07 A2986 RMK AO2 P0000 T10611072
KBAF 160102Z 19004KT 3SM -SN BR OVC034 M06/M08 A2987 RMK AO2 P0000 T10611078
KBAF 160053Z 18004KT 2 1/2SM -SN BR OVC034 M06/M08 A2987 RMK AO2 SLP124 P0000 T10611078
KBAF 160045Z 18003KT 2 1/2SM -SN BR OVC032 M06/M08 A2987 RMK AO2 P0000 T10611078
KBAF 152353Z 19007KT 3SM -SN OVC036 M06/M09 A2988 RMK AO2 SNB39 SLP127 P0000 60000 T10611094 11050 21061 55013
KBAF 152253Z 00000KT 10SM OVC060 M05/M11 A2987 RMK AO2 SLP125 T10501111
KBAF 152153Z 00000KT 10SM BKN080 OVC095 M06/M11 A2988 RMK AO2 SLP129 T10561111
KBAF 152053Z 12004KT 10SM OVC080 M05/M12 A2992 RMK AO2 SLP140 T10501117 58027
KBAF 151953Z 13003KT 10SM OVC085 M05/M12 A2994 RMK AO2 SLP147 T10501117
KBAF 151853Z 15004KT 10SM FEW032 OVC090 M05/M11 A2998 RMK AO2 SLP160 T10501111
KBAF 151753Z 19004KT 10SM OVC110 M06/M12 A3000 RMK AO2 SLP166 T10561117 11056 21122 58034
KBAF 151653Z 00000KT 10SM FEW120 M06/M12 A3003 RMK AO2 SLP179 T10611117
KBAF 151553Z 19004KT 10SM CLR M07/M12 A3007 RMK AO2 SLP192 T10721117
KBAF 151453Z 22005KT 10SM CLR M08/M12 A3010 RMK AO2 SLP202 T10781122 53008
KBAF 151353Z 00000KT 10SM CLR M10/M12 A3009 RMK AO2 SLP199 T11001122
KBAF 151253Z 00000KT 10SM CLR M11/M13 A3008 RMK AO2 SLP196 T11111128
KBAF 151153Z 00000KT 10SM CLR M11/M14 A3007 RMK AO2 SLP193 T11111139 11083 21122 53005
KBAF 151053Z AUTO 00000KT 10SM CLR M11/M13 A3007 RMK AO2 SLP191 T11111133
KBAF 150953Z AUTO 09003KT 10SM CLR M12/M14 A3006 RMK AO2 SLP189 T11171139
KBAF 150853Z AUTO 17003KT 10SM CLR M12/M14 A3006 RMK AO2 SLP188 T11171144 51013
KBAF 150753Z AUTO 00000KT 10SM CLR M09/M14 A3005 RMK AO2 SLP186 T10941139
KBAF 150653Z AUTO 29011KT 10SM CLR M08/M14 A3003 RMK AO2 SLP179 T10831139